sensor_id;sensor_type;location;lat;lon;timestamp;P1;durP1;ratioP1;P2;durP2;ratioP2
64832;SDS011;51290;45.060;38.948;2024-02-21T00:00:02;9.65;;;7.38;;
64832;SDS011;51290;45.060;38.948;2024-02-21T00:02:29;10.70;;;6.65;;
64832;SDS011;51290;45.060;38.948;2024-02-21T00:04:55;7.30;;;6.05;;
64832;SDS011;51290;45.060;38.948;2024-02-21T00:07:21;17.90;;;7.70;;
64832;SDS011;51290;45.060;38.948;2024-02-21T00:09:47;9.73;;;6.75;;
64832;SDS011;51290;45.060;38.948;2024-02-21T00:12:14;16.15;;;8.68;;
64832;SDS011;51290;45.060;38.948;2024-02-21T00:14:40;13.98;;;7.03;;
64832;SDS011;51290;45.060;38.948;2024-02-21T00:17:06;19.38;;;8.10;;
64832;SDS011;51290;45.060;38.948;2024-02-21T00:19:34;16.80;;;8.50;;
64832;SDS011;51290;45.060;38.948;2024-02-21T00:22:00;9.95;;;7.82;;
64832;SDS011;51290;45.060;38.948;2024-02-21T00:24:26;9.48;;;6.80;;
64832;SDS011;51290;45.060;38.948;2024-02-21T00:26:53;9.57;;;7.57;;
64832;SDS011;51290;45.060;38.948;2024-02-21T00:29:19;11.93;;;8.25;;
64832;SDS011;51290;45.060;38.948;2024-02-21T00:31:45;10.85;;;7.05;;
64832;SDS011;51290;45.060;38.948;2024-02-21T00:34:11;8.50;;;6.13;;
64832;SDS011;51290;45.060;38.948;2024-02-21T00:36:38;10.77;;;7.35;;
64832;SDS011;51290;45.060;38.948;2024-02-21T00:39:04;7.13;;;5.53;;
64832;SDS011;51290;45.060;38.948;2024-02-21T00:41:30;8.38;;;6.50;;
64832;SDS011;51290;45.060;38.948;2024-02-21T00:43:56;9.63;;;6.72;;
64832;SDS011;51290;45.060;38.948;2024-02-21T00:46:22;11.65;;;8.25;;
64832;SDS011;51290;45.060;38.948;2024-02-21T00:48:48;8.90;;;6.60;;
64832;SDS011;51290;45.060;38.948;2024-02-21T00:51:15;9.50;;;7.07;;
64832;SDS011;51290;45.060;38.948;2024-02-21T00:53:42;9.80;;;6.30;;
64832;SDS011;51290;45.060;38.948;2024-02-21T00:56:08;11.65;;;7.03;;
64832;SDS011;51290;45.060;38.948;2024-02-21T00:58:34;8.90;;;5.68;;
64832;SDS011;51290;45.060;38.948;2024-02-21T01:01:00;8.15;;;6.07;;
64832;SDS011;51290;45.060;38.948;2024-02-21T01:03:26;10.60;;;6.65;;
64832;SDS011;51290;45.060;38.948;2024-02-21T01:05:52;8.57;;;5.95;;
64832;SDS011;51290;45.060;38.948;2024-02-21T01:08:18;7.55;;;5.60;;
64832;SDS011;51290;45.060;38.948;2024-02-21T01:10:44;8.15;;;5.20;;
64832;SDS011;51290;45.060;38.948;2024-02-21T01:13:10;8.48;;;6.28;;
64832;SDS011;51290;45.060;38.948;2024-02-21T01:15:36;9.55;;;5.97;;
64832;SDS011;51290;45.060;38.948;2024-02-21T01:18:02;6.60;;;5.13;;
64832;SDS011;51290;45.060;38.948;2024-02-21T01:20:30;7.32;;;5.30;;
64832;SDS011;51290;45.060;38.948;2024-02-21T01:22:56;7.45;;;5.75;;
64832;SDS011;51290;45.060;38.948;2024-02-21T01:25:22;21.58;;;5.50;;
64832;SDS011;51290;45.060;38.948;2024-02-21T01:27:48;10.77;;;5.88;;
64832;SDS011;51290;45.060;38.948;2024-02-21T01:30:15;8.98;;;5.78;;
64832;SDS011;51290;45.060;38.948;2024-02-21T01:32:41;8.70;;;5.50;;
64832;SDS011;51290;45.060;38.948;2024-02-21T01:35:07;9.98;;;5.95;;
64832;SDS011;51290;45.060;38.948;2024-02-21T01:37:33;7.13;;;5.13;;
64832;SDS011;51290;45.060;38.948;2024-02-21T01:39:59;8.43;;;5.93;;
64832;SDS011;51290;45.060;38.948;2024-02-21T01:42:25;7.75;;;5.18;;
64832;SDS011;51290;45.060;38.948;2024-02-21T01:44:51;9.15;;;5.45;;
64832;SDS011;51290;45.060;38.948;2024-02-21T01:47:17;7.53;;;4.97;;
64832;SDS011;51290;45.060;38.948;2024-02-21T01:49:43;8.57;;;5.55;;
64832;SDS011;51290;45.060;38.948;2024-02-21T01:52:10;7.25;;;5.53;;
64832;SDS011;51290;45.060;38.948;2024-02-21T01:54:39;11.60;;;5.93;;
64832;SDS011;51290;45.060;38.948;2024-02-21T01:57:05;7.88;;;5.20;;
64832;SDS011;51290;45.060;38.948;2024-02-21T01:59:31;10.00;;;6.40;;
64832;SDS011;51290;45.060;38.948;2024-02-21T02:01:57;7.72;;;5.22;;
64832;SDS011;51290;45.060;38.948;2024-02-21T02:04:24;6.82;;;4.90;;
64832;SDS011;51290;45.060;38.948;2024-02-21T02:06:50;20.33;;;6.05;;
64832;SDS011;51290;45.060;38.948;2024-02-21T02:09:16;9.55;;;7.32;;
64832;SDS011;51290;45.060;38.948;2024-02-21T02:11:43;9.88;;;6.90;;
64832;SDS011;51290;45.060;38.948;2024-02-21T02:14:09;9.40;;;6.50;;
64832;SDS011;51290;45.060;38.948;2024-02-21T02:16:35;8.55;;;5.53;;
64832;SDS011;51290;45.060;38.948;2024-02-21T02:19:01;8.98;;;5.97;;
64832;SDS011;51290;45.060;38.948;2024-02-21T02:21:30;6.65;;;5.18;;
64832;SDS011;51290;45.060;38.948;2024-02-21T02:24:00;11.45;;;6.47;;
64832;SDS011;51290;45.060;38.948;2024-02-21T02:26:26;9.88;;;4.57;;
64832;SDS011;51290;45.060;38.948;2024-02-21T02:28:52;8.30;;;5.93;;
64832;SDS011;51290;45.060;38.948;2024-02-21T02:31:18;8.50;;;6.13;;
64832;SDS011;51290;45.060;38.948;2024-02-21T02:33:44;7.70;;;5.43;;
64832;SDS011;51290;45.060;38.948;2024-02-21T02:36:10;8.05;;;6.10;;
64832;SDS011;51290;45.060;38.948;2024-02-21T02:38:36;6.13;;;5.07;;
64832;SDS011;51290;45.060;38.948;2024-02-21T02:41:02;10.73;;;6.65;;
64832;SDS011;51290;45.060;38.948;2024-02-21T02:43:28;8.57;;;5.82;;
64832;SDS011;51290;45.060;38.948;2024-02-21T02:45:54;11.07;;;6.57;;
64832;SDS011;51290;45.060;38.948;2024-02-21T02:48:21;8.75;;;5.93;;
64832;SDS011;51290;45.060;38.948;2024-02-21T02:50:47;10.48;;;6.25;;
64832;SDS011;51290;45.060;38.948;2024-02-21T02:53:14;8.88;;;6.45;;
64832;SDS011;51290;45.060;38.948;2024-02-21T02:55:41;11.00;;;7.15;;
64832;SDS011;51290;45.060;38.948;2024-02-21T02:58:06;12.52;;;7.40;;
64832;SDS011;51290;45.060;38.948;2024-02-21T03:00:34;9.85;;;7.18;;
64832;SDS011;51290;45.060;38.948;2024-02-21T03:03:01;10.80;;;7.38;;
64832;SDS011;51290;45.060;38.948;2024-02-21T03:05:30;10.73;;;7.43;;
64832;SDS011;51290;45.060;38.948;2024-02-21T03:07:56;11.30;;;8.10;;
64832;SDS011;51290;45.060;38.948;2024-02-21T03:10:22;9.32;;;7.00;;
64832;SDS011;51290;45.060;38.948;2024-02-21T03:12:48;11.82;;;8.65;;
64832;SDS011;51290;45.060;38.948;2024-02-21T03:15:14;12.25;;;8.40;;
64832;SDS011;51290;45.060;38.948;2024-02-21T03:17:40;9.75;;;5.95;;
64832;SDS011;51290;45.060;38.948;2024-02-21T03:20:07;11.10;;;7.38;;
64832;SDS011;51290;45.060;38.948;2024-02-21T03:22:36;10.55;;;6.70;;
64832;SDS011;51290;45.060;38.948;2024-02-21T03:25:03;10.00;;;7.05;;
64832;SDS011;51290;45.060;38.948;2024-02-21T03:27:29;10.32;;;7.03;;
64832;SDS011;51290;45.060;38.948;2024-02-21T03:29:55;13.10;;;7.55;;
64832;SDS011;51290;45.060;38.948;2024-02-21T03:32:21;12.38;;;8.00;;
64832;SDS011;51290;45.060;38.948;2024-02-21T03:34:47;10.65;;;7.55;;
64832;SDS011;51290;45.060;38.948;2024-02-21T03:37:13;8.88;;;6.90;;
64832;SDS011;51290;45.060;38.948;2024-02-21T03:39:39;13.48;;;8.20;;
64832;SDS011;51290;45.060;38.948;2024-02-21T03:42:06;12.38;;;7.68;;
64832;SDS011;51290;45.060;38.948;2024-02-21T03:44:31;11.98;;;7.13;;
64832;SDS011;51290;45.060;38.948;2024-02-21T03:47:00;11.95;;;6.97;;
64832;SDS011;51290;45.060;38.948;2024-02-21T03:49:26;11.10;;;6.97;;
64832;SDS011;51290;45.060;38.948;2024-02-21T03:51:52;12.68;;;7.50;;
64832;SDS011;51290;45.060;38.948;2024-02-21T03:54:18;10.70;;;7.57;;
64832;SDS011;51290;45.060;38.948;2024-02-21T03:56:45;16.58;;;8.15;;
64832;SDS011;51290;45.060;38.948;2024-02-21T03:59:13;11.52;;;7.30;;
64832;SDS011;51290;45.060;38.948;2024-02-21T04:01:39;13.43;;;7.63;;
64832;SDS011;51290;45.060;38.948;2024-02-21T04:04:05;13.73;;;7.38;;
64832;SDS011;51290;45.060;38.948;2024-02-21T04:06:30;10.38;;;8.02;;
64832;SDS011;51290;45.060;38.948;2024-02-21T04:08:56;10.95;;;7.30;;
64832;SDS011;51290;45.060;38.948;2024-02-21T04:11:23;10.55;;;7.57;;
64832;SDS011;51290;45.060;38.948;2024-02-21T04:13:49;38.85;;;7.13;;
64832;SDS011;51290;45.060;38.948;2024-02-21T04:16:16;9.73;;;7.50;;
64832;SDS011;51290;45.060;38.948;2024-02-21T04:18:43;16.23;;;8.60;;
64832;SDS011;51290;45.060;38.948;2024-02-21T04:21:09;11.63;;;8.30;;
64832;SDS011;51290;45.060;38.948;2024-02-21T04:23:35;15.65;;;9.05;;
64832;SDS011;51290;45.060;38.948;2024-02-21T04:26:01;9.80;;;7.43;;
64832;SDS011;51290;45.060;38.948;2024-02-21T04:28:27;13.32;;;9.32;;
64832;SDS011;51290;45.060;38.948;2024-02-21T04:30:53;14.45;;;8.02;;
64832;SDS011;51290;45.060;38.948;2024-02-21T04:33:19;16.73;;;8.73;;
64832;SDS011;51290;45.060;38.948;2024-02-21T04:35:45;14.50;;;8.43;;
64832;SDS011;51290;45.060;38.948;2024-02-21T04:38:11;11.98;;;7.75;;
64832;SDS011;51290;45.060;38.948;2024-02-21T04:40:37;10.65;;;8.13;;
64832;SDS011;51290;45.060;38.948;2024-02-21T04:43:03;15.52;;;8.23;;
64832;SDS011;51290;45.060;38.948;2024-02-21T04:45:29;10.25;;;7.82;;
64832;SDS011;51290;45.060;38.948;2024-02-21T04:47:55;26.05;;;7.38;;
64832;SDS011;51290;45.060;38.948;2024-02-21T04:50:21;11.00;;;7.65;;
64832;SDS011;51290;45.060;38.948;2024-02-21T04:52:47;12.48;;;8.38;;
64832;SDS011;51290;45.060;38.948;2024-02-21T04:55:13;13.10;;;8.30;;
64832;SDS011;51290;45.060;38.948;2024-02-21T04:57:39;12.95;;;8.55;;
64832;SDS011;51290;45.060;38.948;2024-02-21T05:00:05;11.80;;;7.80;;
64832;SDS011;51290;45.060;38.948;2024-02-21T05:02:32;13.32;;;8.88;;
64832;SDS011;51290;45.060;38.948;2024-02-21T05:04:58;11.20;;;7.55;;
64832;SDS011;51290;45.060;38.948;2024-02-21T05:07:24;13.90;;;7.93;;
64832;SDS011;51290;45.060;38.948;2024-02-21T05:09:50;9.85;;;7.75;;
64832;SDS011;51290;45.060;38.948;2024-02-21T05:12:16;12.07;;;8.38;;
64832;SDS011;51290;45.060;38.948;2024-02-21T05:14:42;17.05;;;8.40;;
64832;SDS011;51290;45.060;38.948;2024-02-21T05:17:08;13.50;;;7.18;;
64832;SDS011;51290;45.060;38.948;2024-02-21T05:19:34;15.40;;;8.40;;
64832;SDS011;51290;45.060;38.948;2024-02-21T05:22:00;16.30;;;8.70;;
64832;SDS011;51290;45.060;38.948;2024-02-21T05:24:26;13.95;;;8.35;;
64832;SDS011;51290;45.060;38.948;2024-02-21T05:26:53;16.50;;;8.40;;
64832;SDS011;51290;45.060;38.948;2024-02-21T05:29:19;12.13;;;8.50;;
64832;SDS011;51290;45.060;38.948;2024-02-21T05:34:18;14.32;;;8.43;;
64832;SDS011;51290;45.060;38.948;2024-02-21T05:36:45;14.73;;;8.38;;
64832;SDS011;51290;45.060;38.948;2024-02-21T05:39:11;12.65;;;8.10;;
64832;SDS011;51290;45.060;38.948;2024-02-21T05:41:38;11.93;;;8.20;;
64832;SDS011;51290;45.060;38.948;2024-02-21T05:44:04;14.32;;;9.25;;
64832;SDS011;51290;45.060;38.948;2024-02-21T05:46:30;14.77;;;7.82;;
64832;SDS011;51290;45.060;38.948;2024-02-21T05:48:56;12.77;;;8.32;;
64832;SDS011;51290;45.060;38.948;2024-02-21T05:51:22;12.52;;;8.65;;
64832;SDS011;51290;45.060;38.948;2024-02-21T05:53:48;12.95;;;8.63;;
64832;SDS011;51290;45.060;38.948;2024-02-21T05:56:14;17.83;;;9.35;;
64832;SDS011;51290;45.060;38.948;2024-02-21T05:58:40;13.38;;;8.65;;
64832;SDS011;51290;45.060;38.948;2024-02-21T06:01:07;44.15;;;10.32;;
64832;SDS011;51290;45.060;38.948;2024-02-21T06:03:33;13.10;;;8.70;;
64832;SDS011;51290;45.060;38.948;2024-02-21T06:06:00;11.23;;;8.07;;
64832;SDS011;51290;45.060;38.948;2024-02-21T06:08:27;11.95;;;8.40;;
64832;SDS011;51290;45.060;38.948;2024-02-21T06:10:53;32.60;;;11.50;;
64832;SDS011;51290;45.060;38.948;2024-02-21T06:13:23;12.77;;;8.40;;
64832;SDS011;51290;45.060;38.948;2024-02-21T06:15:49;13.05;;;8.40;;
64832;SDS011;51290;45.060;38.948;2024-02-21T06:18:19;13.32;;;9.05;;
64832;SDS011;51290;45.060;38.948;2024-02-21T06:20:45;17.70;;;10.80;;
64832;SDS011;51290;45.060;38.948;2024-02-21T06:23:12;15.82;;;9.95;;
64832;SDS011;51290;45.060;38.948;2024-02-21T06:25:42;13.18;;;9.82;;
64832;SDS011;51290;45.060;38.948;2024-02-21T06:28:08;15.60;;;9.05;;
64832;SDS011;51290;45.060;38.948;2024-02-21T06:30:34;18.25;;;9.55;;
64832;SDS011;51290;45.060;38.948;2024-02-21T06:33:01;10.65;;;7.72;;
64832;SDS011;51290;45.060;38.948;2024-02-21T06:35:28;15.57;;;10.15;;
64832;SDS011;51290;45.060;38.948;2024-02-21T06:37:54;13.50;;;9.23;;
64832;SDS011;51290;45.060;38.948;2024-02-21T06:40:21;22.02;;;10.70;;
64832;SDS011;51290;45.060;38.948;2024-02-21T06:42:48;14.25;;;9.27;;
64832;SDS011;51290;45.060;38.948;2024-02-21T06:45:14;15.52;;;9.40;;
64832;SDS011;51290;45.060;38.948;2024-02-21T06:47:41;15.90;;;10.65;;
64832;SDS011;51290;45.060;38.948;2024-02-21T06:50:07;17.95;;;10.93;;
64832;SDS011;51290;45.060;38.948;2024-02-21T06:52:34;21.63;;;8.85;;
64832;SDS011;51290;45.060;38.948;2024-02-21T06:55:00;15.52;;;9.65;;
64832;SDS011;51290;45.060;38.948;2024-02-21T06:57:28;14.48;;;9.70;;
64832;SDS011;51290;45.060;38.948;2024-02-21T06:59:54;17.48;;;11.43;;
64832;SDS011;51290;45.060;38.948;2024-02-21T07:02:20;15.10;;;9.90;;
64832;SDS011;51290;45.060;38.948;2024-02-21T07:04:45;14.43;;;10.15;;
64832;SDS011;51290;45.060;38.948;2024-02-21T07:07:11;16.90;;;10.52;;
64832;SDS011;51290;45.060;38.948;2024-02-21T07:09:38;16.90;;;11.00;;
64832;SDS011;51290;45.060;38.948;2024-02-21T07:12:04;16.75;;;10.23;;
64832;SDS011;51290;45.060;38.948;2024-02-21T07:14:33;16.55;;;10.88;;
64832;SDS011;51290;45.060;38.948;2024-02-21T07:17:00;15.88;;;9.88;;
64832;SDS011;51290;45.060;38.948;2024-02-21T07:19:26;19.85;;;10.07;;
64832;SDS011;51290;45.060;38.948;2024-02-21T07:21:52;14.80;;;9.38;;
64832;SDS011;51290;45.060;38.948;2024-02-21T07:24:20;16.90;;;10.13;;
64832;SDS011;51290;45.060;38.948;2024-02-21T07:26:46;15.73;;;10.27;;
64832;SDS011;51290;45.060;38.948;2024-02-21T07:29:12;16.85;;;10.52;;
64832;SDS011;51290;45.060;38.948;2024-02-21T07:31:41;17.55;;;10.05;;
64832;SDS011;51290;45.060;38.948;2024-02-21T07:34:08;18.00;;;11.13;;
64832;SDS011;51290;45.060;38.948;2024-02-21T07:36:35;16.67;;;9.73;;
64832;SDS011;51290;45.060;38.948;2024-02-21T07:39:02;28.00;;;10.15;;
64832;SDS011;51290;45.060;38.948;2024-02-21T07:41:29;13.57;;;9.07;;
64832;SDS011;51290;45.060;38.948;2024-02-21T07:43:56;14.02;;;9.70;;
64832;SDS011;51290;45.060;38.948;2024-02-21T07:46:22;14.80;;;10.10;;
64832;SDS011;51290;45.060;38.948;2024-02-21T07:48:48;15.02;;;9.48;;
64832;SDS011;51290;45.060;38.948;2024-02-21T07:51:14;14.00;;;9.57;;
64832;SDS011;51290;45.060;38.948;2024-02-21T07:53:43;17.63;;;10.82;;
64832;SDS011;51290;45.060;38.948;2024-02-21T07:56:13;15.43;;;10.40;;
64832;SDS011;51290;45.060;38.948;2024-02-21T07:58:40;14.45;;;10.45;;
64832;SDS011;51290;45.060;38.948;2024-02-21T08:01:07;18.35;;;11.82;;
64832;SDS011;51290;45.060;38.948;2024-02-21T08:03:33;18.90;;;10.43;;
64832;SDS011;51290;45.060;38.948;2024-02-21T08:05:59;13.18;;;10.02;;
64832;SDS011;51290;45.060;38.948;2024-02-21T08:08:25;16.13;;;10.88;;
64832;SDS011;51290;45.060;38.948;2024-02-21T08:10:52;16.20;;;11.32;;
64832;SDS011;51290;45.060;38.948;2024-02-21T08:13:18;19.75;;;12.25;;
64832;SDS011;51290;45.060;38.948;2024-02-21T08:15:44;16.50;;;10.25;;
64832;SDS011;51290;45.060;38.948;2024-02-21T08:18:10;17.63;;;11.95;;
64832;SDS011;51290;45.060;38.948;2024-02-21T08:20:36;40.63;;;14.13;;
64832;SDS011;51290;45.060;38.948;2024-02-21T08:23:02;20.30;;;13.77;;
64832;SDS011;51290;45.060;38.948;2024-02-21T08:25:29;26.50;;;15.40;;
64832;SDS011;51290;45.060;38.948;2024-02-21T08:27:56;19.10;;;14.40;;
64832;SDS011;51290;45.060;38.948;2024-02-21T08:30:23;23.52;;;14.68;;
64832;SDS011;51290;45.060;38.948;2024-02-21T08:32:49;20.77;;;15.48;;
64832;SDS011;51290;45.060;38.948;2024-02-21T08:35:15;23.33;;;16.17;;
64832;SDS011;51290;45.060;38.948;2024-02-21T08:37:43;22.95;;;15.77;;
64832;SDS011;51290;45.060;38.948;2024-02-21T08:40:12;19.25;;;14.20;;
64832;SDS011;51290;45.060;38.948;2024-02-21T08:42:41;23.05;;;16.38;;
64832;SDS011;51290;45.060;38.948;2024-02-21T08:45:07;22.20;;;15.00;;
64832;SDS011;51290;45.060;38.948;2024-02-21T08:47:33;24.05;;;16.02;;
64832;SDS011;51290;45.060;38.948;2024-02-21T08:50:01;20.48;;;15.65;;
64832;SDS011;51290;45.060;38.948;2024-02-21T08:52:27;18.90;;;14.45;;
64832;SDS011;51290;45.060;38.948;2024-02-21T08:54:53;19.42;;;14.77;;
64832;SDS011;51290;45.060;38.948;2024-02-21T08:57:19;19.63;;;14.63;;
64832;SDS011;51290;45.060;38.948;2024-02-21T08:59:45;21.10;;;16.08;;
64832;SDS011;51290;45.060;38.948;2024-02-21T09:02:12;21.00;;;15.70;;
64832;SDS011;51290;45.060;38.948;2024-02-21T09:04:41;27.98;;;17.90;;
64832;SDS011;51290;45.060;38.948;2024-02-21T09:07:09;20.85;;;16.30;;
64832;SDS011;51290;45.060;38.948;2024-02-21T09:17:17;23.00;;;15.52;;
64832;SDS011;51290;45.060;38.948;2024-02-21T09:19:46;20.42;;;14.23;;
64832;SDS011;51290;45.060;38.948;2024-02-21T09:22:13;16.63;;;13.88;;
64832;SDS011;51290;45.060;38.948;2024-02-21T09:24:39;21.98;;;14.30;;
64832;SDS011;51290;45.060;38.948;2024-02-21T09:27:05;24.08;;;15.15;;
64832;SDS011;51290;45.060;38.948;2024-02-21T09:29:31;19.05;;;14.00;;
64832;SDS011;51290;45.060;38.948;2024-02-21T09:32:01;20.80;;;14.02;;
64832;SDS011;51290;45.060;38.948;2024-02-21T09:34:28;18.42;;;13.57;;
64832;SDS011;51290;45.060;38.948;2024-02-21T09:36:54;18.13;;;13.60;;
64832;SDS011;51290;45.060;38.948;2024-02-21T09:39:20;20.35;;;14.48;;
64832;SDS011;51290;45.060;38.948;2024-02-21T09:41:58;23.58;;;14.55;;
64832;SDS011;51290;45.060;38.948;2024-02-21T09:44:30;20.63;;;14.15;;
64832;SDS011;51290;45.060;38.948;2024-02-21T09:47:03;17.35;;;12.95;;
64832;SDS011;51290;45.060;38.948;2024-02-21T09:49:32;17.77;;;12.77;;
64832;SDS011;51290;45.060;38.948;2024-02-21T09:52:01;16.90;;;12.35;;
64832;SDS011;51290;45.060;38.948;2024-02-21T09:54:29;19.15;;;14.15;;
64832;SDS011;51290;45.060;38.948;2024-02-21T09:56:56;15.35;;;12.98;;
64832;SDS011;51290;45.060;38.948;2024-02-21T09:59:22;20.60;;;12.70;;
64832;SDS011;51290;45.060;38.948;2024-02-21T10:01:50;22.77;;;12.00;;
64832;SDS011;51290;45.060;38.948;2024-02-21T10:04:16;21.35;;;13.05;;
64832;SDS011;51290;45.060;38.948;2024-02-21T10:06:44;19.50;;;13.73;;
64832;SDS011;51290;45.060;38.948;2024-02-21T10:09:19;23.50;;;12.75;;
64832;SDS011;51290;45.060;38.948;2024-02-21T10:11:55;18.88;;;14.05;;
64832;SDS011;51290;45.060;38.948;2024-02-21T10:14:21;18.05;;;12.95;;
64832;SDS011;51290;45.060;38.948;2024-02-21T10:16:48;17.83;;;13.48;;
64832;SDS011;51290;45.060;38.948;2024-02-21T10:19:22;20.67;;;13.30;;
64832;SDS011;51290;45.060;38.948;2024-02-21T10:22:05;20.08;;;13.10;;
64832;SDS011;51290;45.060;38.948;2024-02-21T10:24:33;15.38;;;11.82;;
64832;SDS011;51290;45.060;38.948;2024-02-21T10:27:01;28.08;;;14.13;;
64832;SDS011;51290;45.060;38.948;2024-02-21T10:29:37;16.92;;;12.30;;
64832;SDS011;51290;45.060;38.948;2024-02-21T10:32:04;14.50;;;11.88;;
64832;SDS011;51290;45.060;38.948;2024-02-21T10:34:32;13.35;;;9.68;;
64832;SDS011;51290;45.060;38.948;2024-02-21T10:37:05;20.95;;;11.90;;
64832;SDS011;51290;45.060;38.948;2024-02-21T10:39:32;15.35;;;10.85;;
64832;SDS011;51290;45.060;38.948;2024-02-21T10:42:05;14.18;;;11.30;;
64832;SDS011;51290;45.060;38.948;2024-02-21T10:44:32;13.23;;;10.77;;
64832;SDS011;51290;45.060;38.948;2024-02-21T10:46:59;14.45;;;10.60;;
64832;SDS011;51290;45.060;38.948;2024-02-21T10:49:30;20.88;;;11.90;;
64832;SDS011;51290;45.060;38.948;2024-02-21T10:54:52;14.53;;;11.50;;
64832;SDS011;51290;45.060;38.948;2024-02-21T10:57:22;14.32;;;10.65;;
64832;SDS011;51290;45.060;38.948;2024-02-21T10:59:49;18.58;;;12.45;;
64832;SDS011;51290;45.060;38.948;2024-02-21T11:02:16;17.08;;;11.18;;
64832;SDS011;51290;45.060;38.948;2024-02-21T11:04:42;13.77;;;9.15;;
64832;SDS011;51290;45.060;38.948;2024-02-21T11:07:09;12.57;;;8.93;;
64832;SDS011;51290;45.060;38.948;2024-02-21T11:09:35;13.02;;;8.88;;
64832;SDS011;51290;45.060;38.948;2024-02-21T11:12:05;12.75;;;8.80;;
64832;SDS011;51290;45.060;38.948;2024-02-21T11:14:32;16.38;;;9.63;;
64832;SDS011;51290;45.060;38.948;2024-02-21T11:16:58;18.75;;;9.90;;
64832;SDS011;51290;45.060;38.948;2024-02-21T11:19:26;12.93;;;9.55;;
64832;SDS011;51290;45.060;38.948;2024-02-21T11:21:53;13.35;;;10.40;;
64832;SDS011;51290;45.060;38.948;2024-02-21T11:24:27;14.25;;;9.27;;
64832;SDS011;51290;45.060;38.948;2024-02-21T11:27:14;11.00;;;8.43;;
64832;SDS011;51290;45.060;38.948;2024-02-21T11:29:42;10.80;;;7.93;;
64832;SDS011;51290;45.060;38.948;2024-02-21T11:32:17;11.77;;;8.40;;
64832;SDS011;51290;45.060;38.948;2024-02-21T11:37:31;12.75;;;8.23;;
64832;SDS011;51290;45.060;38.948;2024-02-21T11:40:04;14.52;;;8.25;;
64832;SDS011;51290;45.060;38.948;2024-02-21T11:42:35;8.88;;;7.20;;
64832;SDS011;51290;45.060;38.948;2024-02-21T11:45:01;10.38;;;6.70;;
64832;SDS011;51290;45.060;38.948;2024-02-21T11:47:30;9.52;;;7.20;;
64832;SDS011;51290;45.060;38.948;2024-02-21T11:49:59;8.40;;;6.75;;
64832;SDS011;51290;45.060;38.948;2024-02-21T11:52:25;8.45;;;6.40;;
64832;SDS011;51290;45.060;38.948;2024-02-21T11:54:52;14.00;;;9.52;;
64832;SDS011;51290;45.060;38.948;2024-02-21T11:57:21;15.90;;;10.23;;
64832;SDS011;51290;45.060;38.948;2024-02-21T11:59:48;13.60;;;8.07;;
64832;SDS011;51290;45.060;38.948;2024-02-21T12:02:17;12.00;;;9.43;;
64832;SDS011;51290;45.060;38.948;2024-02-21T12:04:44;13.43;;;10.32;;
64832;SDS011;51290;45.060;38.948;2024-02-21T12:07:11;19.75;;;12.88;;
64832;SDS011;51290;45.060;38.948;2024-02-21T12:09:38;11.25;;;8.45;;
64832;SDS011;51290;45.060;38.948;2024-02-21T12:12:07;14.55;;;9.40;;
64832;SDS011;51290;45.060;38.948;2024-02-21T12:14:33;14.82;;;9.88;;
64832;SDS011;51290;45.060;38.948;2024-02-21T12:17:00;13.48;;;9.23;;
64832;SDS011;51290;45.060;38.948;2024-02-21T12:19:29;12.27;;;9.40;;
64832;SDS011;51290;45.060;38.948;2024-02-21T12:21:58;10.85;;;8.40;;
64832;SDS011;51290;45.060;38.948;2024-02-21T12:24:25;18.63;;;10.80;;
64832;SDS011;51290;45.060;38.948;2024-02-21T12:26:53;9.75;;;7.25;;
64832;SDS011;51290;45.060;38.948;2024-02-21T12:29:20;11.00;;;7.53;;
64832;SDS011;51290;45.060;38.948;2024-02-21T12:31:46;14.95;;;10.70;;
64832;SDS011;51290;45.060;38.948;2024-02-21T12:34:12;14.75;;;10.77;;
64832;SDS011;51290;45.060;38.948;2024-02-21T12:36:42;15.45;;;11.70;;
64832;SDS011;51290;45.060;38.948;2024-02-21T12:39:09;20.52;;;9.48;;
64832;SDS011;51290;45.060;38.948;2024-02-21T12:41:36;14.57;;;10.23;;
64832;SDS011;51290;45.060;38.948;2024-02-21T12:44:11;11.43;;;8.63;;
64832;SDS011;51290;45.060;38.948;2024-02-21T12:46:38;13.93;;;9.57;;
64832;SDS011;51290;45.060;38.948;2024-02-21T12:49:05;11.05;;;8.43;;
64832;SDS011;51290;45.060;38.948;2024-02-21T12:51:35;16.33;;;10.25;;
64832;SDS011;51290;45.060;38.948;2024-02-21T12:54:01;15.80;;;10.45;;
64832;SDS011;51290;45.060;38.948;2024-02-21T12:56:30;18.17;;;12.88;;
64832;SDS011;51290;45.060;38.948;2024-02-21T12:58:57;13.43;;;10.55;;
64832;SDS011;51290;45.060;38.948;2024-02-21T13:01:23;12.05;;;8.55;;
64832;SDS011;51290;45.060;38.948;2024-02-21T13:03:49;11.25;;;8.75;;
64832;SDS011;51290;45.060;38.948;2024-02-21T13:06:15;11.57;;;8.68;;
64832;SDS011;51290;45.060;38.948;2024-02-21T13:08:41;19.08;;;9.93;;
64832;SDS011;51290;45.060;38.948;2024-02-21T13:11:07;14.18;;;9.90;;
64832;SDS011;51290;45.060;38.948;2024-02-21T13:13:33;15.43;;;11.07;;
64832;SDS011;51290;45.060;38.948;2024-02-21T13:15:59;15.50;;;10.55;;
64832;SDS011;51290;45.060;38.948;2024-02-21T13:18:25;14.07;;;9.80;;
64832;SDS011;51290;45.060;38.948;2024-02-21T13:20:51;11.60;;;8.93;;
64832;SDS011;51290;45.060;38.948;2024-02-21T13:23:19;10.57;;;8.82;;
64832;SDS011;51290;45.060;38.948;2024-02-21T13:25:47;13.13;;;9.45;;
64832;SDS011;51290;45.060;38.948;2024-02-21T13:28:14;12.48;;;8.75;;
64832;SDS011;51290;45.060;38.948;2024-02-21T13:30:42;14.20;;;11.43;;
64832;SDS011;51290;45.060;38.948;2024-02-21T13:33:08;17.00;;;9.57;;
64832;SDS011;51290;45.060;38.948;2024-02-21T13:35:35;13.00;;;9.70;;
64832;SDS011;51290;45.060;38.948;2024-02-21T13:38:02;15.00;;;9.77;;
64832;SDS011;51290;45.060;38.948;2024-02-21T13:40:29;12.63;;;8.55;;
64832;SDS011;51290;45.060;38.948;2024-02-21T13:42:55;12.32;;;8.77;;
64832;SDS011;51290;45.060;38.948;2024-02-21T13:45:20;10.50;;;8.20;;
64832;SDS011;51290;45.060;38.948;2024-02-21T13:47:46;10.95;;;8.27;;
64832;SDS011;51290;45.060;38.948;2024-02-21T13:50:13;13.38;;;8.20;;
64832;SDS011;51290;45.060;38.948;2024-02-21T13:52:42;12.82;;;8.32;;
64832;SDS011;51290;45.060;38.948;2024-02-21T13:55:08;14.82;;;7.93;;
64832;SDS011;51290;45.060;38.948;2024-02-21T13:57:37;13.18;;;8.18;;
64832;SDS011;51290;45.060;38.948;2024-02-21T14:00:04;21.00;;;10.23;;
64832;SDS011;51290;45.060;38.948;2024-02-21T14:02:37;12.10;;;8.55;;
64832;SDS011;51290;45.060;38.948;2024-02-21T14:05:04;14.70;;;9.13;;
64832;SDS011;51290;45.060;38.948;2024-02-21T14:07:31;14.18;;;8.68;;
64832;SDS011;51290;45.060;38.948;2024-02-21T14:10:00;14.05;;;8.50;;
64832;SDS011;51290;45.060;38.948;2024-02-21T14:12:26;12.80;;;8.00;;
64832;SDS011;51290;45.060;38.948;2024-02-21T14:14:52;12.38;;;8.65;;
64832;SDS011;51290;45.060;38.948;2024-02-21T14:17:18;12.15;;;8.68;;
64832;SDS011;51290;45.060;38.948;2024-02-21T14:19:45;11.07;;;7.95;;
64832;SDS011;51290;45.060;38.948;2024-02-21T14:22:11;11.38;;;7.50;;
64832;SDS011;51290;45.060;38.948;2024-02-21T14:24:37;10.20;;;7.10;;
64832;SDS011;51290;45.060;38.948;2024-02-21T14:27:03;11.05;;;7.35;;
64832;SDS011;51290;45.060;38.948;2024-02-21T14:29:30;13.25;;;8.38;;
64832;SDS011;51290;45.060;38.948;2024-02-21T14:31:56;11.25;;;7.80;;
64832;SDS011;51290;45.060;38.948;2024-02-21T14:34:21;12.85;;;8.95;;